Time;durP1;ratioP1;P1;durP2;ratioP2;P2;SDS_P1;SDS_P2;PMS_P1;PMS_P2;Temp;Humidity;BMP_temperature;BMP_pressure;BME280_temperature;BME280_humidity;BME280_pressure;Samples;Min_cycle;Max_cycle;Signal;HPM_P1;HPM_P2
2022/02/03 00:00:23;;;;;;;2.50;1.42;;;;;;;4.18;85.72;98960.50;5028260;28;20155;-58
2022/02/03 00:03:12;;;;;;;2.30;1.33;;;;;;;4.13;86.74;98964.66;5030883;28;20422;-60
2022/02/03 00:08:14;;;;;;;0.90;0.90;;;;;;;4.09;88.06;98981.53;5030111;28;20535;-59
2022/02/03 00:10:59;;;;;;;;;;;;;;;4.07;89.78;98989.97;5029348;28;20022;-59
2022/02/03 00:24:35;;;;;;;3.72;1.55;;;;;;;3.91;100.00;99008.34;5029311;28;20047;-59
2022/02/03 00:30:18;;;;;;;5.23;1.63;;;;;;;3.98;100.00;99020.28;5021797;28;20286;-60
2022/02/03 00:48:42;;;;;;;1.93;1.83;;;;;;;3.80;100.00;99030.16;5029455;28;20128;-58
2022/02/03 00:51:08;;;;;;;2.83;1.40;;;;;;;3.84;100.00;99027.69;5029147;28;20041;-58
2022/02/03 00:53:35;;;;;;;1.47;1.10;;;;;;;3.85;100.00;99024.34;5032309;28;20447;-58
2022/02/03 00:56:07;;;;;;;1.17;1.07;;;;;;;3.85;100.00;99020.94;5029744;28;20031;-58
2022/02/03 00:58:40;;;;;;;5.03;1.60;;;;;;;3.78;100.00;99029.31;5028708;28;20361;-57
2022/02/03 01:01:10;;;;;;;5.43;1.53;;;;;;;3.72;100.00;99027.53;5029495;28;20034;-58
2022/02/03 01:03:37;;;;;;;5.07;1.37;;;;;;;3.76;100.00;99036.03;5031421;28;20029;-59
2022/02/03 01:06:03;;;;;;;3.83;1.47;;;;;;;3.80;100.00;99035.25;5027499;28;20531;-60
2022/02/03 01:08:35;;;;;;;3.00;1.60;;;;;;;3.81;100.00;99034.41;5030505;28;20110;-58
2022/02/03 01:11:15;;;;;;;2.03;1.63;;;;;;;3.71;100.00;99035.97;5033842;28;20751;-59
2022/02/03 01:13:49;;;;;;;5.57;1.80;;;;;;;3.79;100.00;99038.59;5031437;28;20048;-59
2022/02/03 01:43:39;;;;;;;4.77;3.10;;;;;;;3.53;100.00;99023.84;4949235;28;20122;-58
2022/02/03 01:46:13;;;;;;;13.47;12.37;;;;;;;3.49;100.00;99032.25;4950121;28;20078;-58
2022/02/03 01:53:50;;;;;;;5.60;1.65;;;;;;;3.43;100.00;99049.06;4949453;28;20046;-60
2022/02/03 01:56:19;;;;;;;7.60;6.77;;;;;;;3.32;100.00;99046.31;4952087;28;20093;-60
2022/02/03 01:58:44;;;;;;;6.90;6.40;;;;;;;3.36;100.00;99049.75;4957335;28;20038;-60
2022/02/03 02:01:13;;;;;;;10.13;9.30;;;;;;;3.37;100.00;99044.72;4955928;28;20740;-60
2022/02/03 02:03:49;;;;;;;8.17;6.77;;;;;;;3.39;100.00;99059.97;4950115;28;20094;-60
2022/02/03 02:06:33;;;;;;;5.27;4.27;;;;;;;3.40;100.00;99057.44;4951337;28;20093;-58
2022/02/03 02:09:11;;;;;;;6.90;3.33;;;;;;;3.44;100.00;99056.66;4956379;28;20043;-56
2022/02/03 02:17:49;;;;;;;3.07;1.60;;;;;;;3.57;100.00;99067.84;5040130;28;20083;-58
2022/02/03 02:39:49;;;;;;;2.17;1.83;;;;;;;3.72;93.44;99060.50;5031962;28;20111;-58
2022/02/03 02:44:55;;;;;;;1.70;1.37;;;;;;;3.66;93.86;99058.69;5033011;28;20094;-59
2022/02/03 02:47:48;;;;;;;3.37;1.73;;;;;;;3.61;91.79;99059.44;5034000;28;20383;-57
2022/02/03 02:50:33;;;;;;;3.20;1.97;;;;;;;3.72;87.62;99067.25;5029832;28;20033;-57
2022/02/03 02:53:25;;;;;;;4.35;1.95;;;;;;;3.69;86.68;99047.78;5031742;28;20028;-57
2022/02/03 03:29:19;;;;;;;2.13;1.30;;;;;;;3.76;79.90;99059.69;4959708;28;20124;-59
2022/02/03 03:37:04;;;;;;;6.23;2.07;;;;;;;3.52;91.13;99085.50;4959909;28;20057;-59
2022/02/03 03:39:38;;;;;;;2.20;1.73;;;;;;;3.38;94.25;99092.06;4958752;28;20030;-60
2022/02/03 03:42:06;;;;;;;4.03;2.30;;;;;;;3.44;96.74;99076.06;4960568;28;20046;-58
2022/02/03 03:44:34;;;;;;;2.83;1.43;;;;;;;3.43;97.78;99074.38;5024417;28;20154;-59
2022/02/03 03:47:05;;;;;;;3.40;1.37;;;;;;;3.41;99.69;99088.69;5018804;28;20053;-59
2022/02/03 03:49:36;;;;;;;3.30;1.70;;;;;;;3.37;100.00;99081.88;5008901;28;20124;-59
2022/02/03 03:52:06;;;;;;;7.27;2.50;;;;;;;3.37;100.00;99076.81;5012900;28;20056;-60
2022/02/03 03:54:38;;;;;;;4.00;1.90;;;;;;;3.32;99.89;99078.41;5013588;28;20404;-61
2022/02/03 04:29:43;;;;;;;5.50;2.23;;;;;;;3.09;100.00;99121.94;5011417;28;20820;-60
2022/02/03 04:55:01;;;;;;;2.37;1.60;;;;;;;3.27;100.00;99148.44;4997691;28;20042;-59
2022/02/03 05:01:08;;;;;;;3.92;1.95;;;;;;;3.31;100.00;99148.50;4999044;28;20717;-59
2022/02/03 05:06:57;;;;;;;7.87;2.63;;;;;;;3.22;100.00;99135.69;4999960;28;20175;-60
2022/02/03 05:12:36;;;;;;;3.40;1.80;;;;;;;3.26;100.00;99136.59;4997891;28;20052;-60
2022/02/03 05:18:39;;;;;;;2.83;1.90;;;;;;;3.37;100.00;99137.63;5002748;28;20201;-58
2022/02/03 05:24:37;;;;;;;3.23;2.03;;;;;;;3.34;100.00;99119.84;4996370;28;20056;-57
2022/02/03 05:33:31;;;;;;;7.37;2.80;;;;;;;3.24;100.00;99131.50;5034630;28;20428;-60
2022/02/03 05:50:36;;;;;;;10.47;4.73;;;;;;;2.95;100.00;99153.75;4983666;28;20590;-59
2022/02/03 06:11:52;;;;;;;2.47;2.10;;;;;;;3.11;99.91;99157.41;4984361;28;20045;-58
2022/02/03 06:14:31;;;;;;;6.33;1.97;;;;;;;3.33;97.43;99162.06;4986455;28;20037;-55
2022/02/03 06:17:29;;;;;;;7.63;2.67;;;;;;;3.25;98.74;99175.41;4979424;28;20802;-56
2022/02/03 06:27:47;;;;;;;11.10;2.20;;;;;;;2.99;100.00;99205.31;5029772;28;20458;-58
2022/02/03 06:30:21;;;;;;;7.90;2.77;;;;;;;2.94;100.00;99209.41;5030109;28;20051;-59
2022/02/03 06:32:47;;;;;;;7.20;2.57;;;;;;;2.95;100.00;99218.72;5032615;28;20537;-57
2022/02/03 06:35:14;;;;;;;6.70;2.30;;;;;;;2.95;100.00;99223.78;5028864;28;20148;-58
2022/02/03 06:37:39;;;;;;;4.60;2.37;;;;;;;3.00;100.00;99234.88;5030393;28;20071;-60
2022/02/03 06:40:07;;;;;;;8.33;2.73;;;;;;;3.01;100.00;99234.88;5028757;28;20112;-58
2022/02/03 06:42:33;;;;;;;4.03;2.00;;;;;;;3.05;100.00;99243.44;5029896;28;20037;-57
2022/02/03 06:45:10;;;;;;;3.67;2.07;;;;;;;3.07;100.00;99240.09;5026762;28;20499;-59
2022/02/03 06:47:53;;;;;;;4.10;2.10;;;;;;;3.12;100.00;99242.72;5027464;28;20057;-59
2022/02/03 06:50:30;;;;;;;10.57;2.47;;;;;;;3.08;100.00;99243.50;5030656;28;20664;-60
2022/02/03 06:53:19;;;;;;;3.13;1.77;;;;;;;3.14;100.00;99241.91;5022661;28;20445;-57
2022/02/03 06:58:36;;;;;;;6.27;2.33;;;;;;;3.06;100.00;99251.03;5030361;28;20047;-53
2022/02/03 07:01:09;;;;;;;7.83;2.90;;;;;;;3.06;100.00;99251.03;5029904;28;20061;-58
2022/02/03 07:03:39;;;;;;;8.60;2.80;;;;;;;3.12;100.00;99250.31;5028066;28;20525;-58
2022/02/03 07:06:06;;;;;;;2.83;2.13;;;;;;;3.23;100.00;99248.84;5010552;28;20120;-58
2022/02/03 07:08:33;;;;;;;6.63;2.67;;;;;;;3.22;100.00;99257.28;5031803;28;20472;-57
2022/02/03 07:11:00;;;;;;;7.30;2.03;;;;;;;3.36;100.00;99260.06;5029347;28;20132;-59
2022/02/03 07:13:26;;;;;;;6.53;2.13;;;;;;;3.22;100.00;99248.00;5029830;28;20065;-59
2022/02/03 07:15:52;;;;;;;5.70;1.90;;;;;;;3.34;100.00;99267.66;5029253;28;20517;-59
2022/02/03 07:18:18;;;;;;;4.00;2.33;;;;;;;3.50;100.00;99263.75;5031627;28;20025;-58
2022/02/03 07:20:43;;;;;;;5.67;2.40;;;;;;;3.41;100.00;99264.41;5030834;28;20104;-58
2022/02/03 07:23:09;;;;;;;2.53;1.67;;;;;;;3.61;100.00;99272.41;5028662;28;20472;-58
2022/02/03 07:25:36;;;;;;;5.60;2.37;;;;;;;3.67;100.00;99264.91;5029201;28;20618;-57
2022/02/03 07:28:03;;;;;;;9.60;3.87;;;;;;;3.68;100.00;99270.03;5028296;28;20672;-59
2022/02/03 07:30:29;;;;;;;5.13;2.80;;;;;;;3.76;100.00;99265.09;5028417;28;20416;-57
2022/02/03 07:32:57;;;;;;;5.20;2.60;;;;;;;3.93;100.00;99278.94;5027465;28;20345;-63
2022/02/03 07:35:23;;;;;;;9.50;2.87;;;;;;;3.94;100.00;99290.78;5028329;28;20399;-60
2022/02/03 07:37:50;;;;;;;9.80;2.20;;;;;;;4.09;100.00;99298.66;5031690;28;20124;-60
2022/02/03 07:40:16;;;;;;;5.00;2.17;;;;;;;4.14;100.00;99301.28;5029387;28;20555;-59
2022/02/03 07:42:45;;;;;;;2.93;2.63;;;;;;;4.23;100.00;99300.56;5031286;28;20495;-59
2022/02/03 07:45:10;;;;;;;4.73;2.27;;;;;;;4.27;100.00;99303.19;5030599;28;20045;-58
2022/02/03 07:47:43;;;;;;;4.57;2.17;;;;;;;4.32;100.00;99301.59;5028778;28;20060;-55
2022/02/03 07:50:09;;;;;;;10.17;2.43;;;;;;;4.35;100.00;99301.63;5027851;28;20112;-57
2022/02/03 07:52:34;;;;;;;5.07;2.60;;;;;;;4.33;100.00;99305.00;5027159;28;20438;-59
2022/02/03 07:55:00;;;;;;;51.50;43.43;;;;;;;4.37;100.00;99304.22;5028020;28;20420;-60
2022/02/03 07:57:25;;;;;;;5.60;2.00;;;;;;;4.51;100.00;99311.19;5030205;28;20025;-60
2022/02/03 07:59:52;;;;;;;5.23;2.23;;;;;;;4.55;100.00;99312.09;5029081;28;20048;-59
2022/02/03 08:02:18;;;;;;;7.07;2.77;;;;;;;4.60;100.00;99302.88;5028800;28;20115;-58
2022/02/03 08:04:46;;;;;;;6.83;2.17;;;;;;;4.71;100.00;99297.97;5033239;28;20036;-58
2022/02/03 08:07:15;;;;;;;11.60;2.60;;;;;;;4.81;100.00;99308.28;5030436;28;20025;-58
2022/02/03 08:10:00;;;;;;;5.30;2.17;;;;;;;4.91;100.00;99304.19;5026759;28;20025;-60
2022/02/03 08:12:31;;;;;;;2.88;1.98;;;;;;;4.82;100.00;99306.59;5026385;28;20043;-59
2022/02/03 08:14:57;;;;;;;9.90;3.00;;;;;;;4.95;100.00;99300.84;5031371;28;20353;-56
2022/02/03 08:17:30;;;;;;;6.70;3.00;;;;;;;4.98;97.51;99301.75;5031624;28;20043;-59
2022/02/03 08:19:59;;;;;;;8.10;2.27;;;;;;;5.11;98.70;99302.78;5025995;28;20597;-58
2022/02/03 08:22:31;;;;;;;5.37;1.80;;;;;;;5.06;98.95;99310.31;5024635;28;20541;-58
2022/02/03 08:25:06;;;;;;;4.60;4.03;;;;;;;5.11;97.61;99301.91;5030605;28;20120;-61
2022/02/03 08:32:34;;;;;;;6.63;2.13;;;;;;;5.31;95.71;99308.97;5027937;28;20072;-59
2022/02/03 08:40:12;;;;;;;56.90;52.00;;;;;;;5.62;90.62;99304.25;5026268;28;20051;-57
2022/02/03 08:42:38;;;;;;;6.30;1.90;;;;;;;5.64;88.48;99310.22;5030030;28;20025;-60
2022/02/03 08:45:03;;;;;;;44.70;41.00;;;;;;;5.63;88.44;99311.06;5030587;28;20478;-58
2022/02/03 08:47:29;;;;;;;3.57;1.87;;;;;;;5.56;89.53;99302.47;5026884;28;20056;-60
2022/02/03 08:49:54;;;;;;;10.10;2.40;;;;;;;5.51;90.73;99299.91;5023175;28;20096;-58
2022/02/03 08:52:23;;;;;;;7.00;2.00;;;;;;;5.50;88.67;99308.38;5028852;28;20036;-58
2022/02/03 08:57:37;;;;;;;2.42;1.92;;;;;;;5.87;87.30;99303.72;5026315;28;20048;-59
2022/02/03 10:00:00;;;;;;;2.53;1.00;;;;;;;7.48;57.27;99293.00;5006864;28;20149;-59
2022/02/03 10:02:30;;;;;;;2.63;1.50;;;;;;;7.58;54.72;99296.44;5019232;28;20021;-58
2022/02/03 10:05:00;;;;;;;2.40;0.93;;;;;;;7.34;55.55;99287.00;5027530;28;20537;-60
2022/02/03 10:07:32;;;;;;;0.83;0.70;;;;;;;7.31;53.58;99290.38;5026638;28;20060;-59
2022/02/03 10:10:00;;;;;;;1.47;1.00;;;;;;;7.26;54.00;99286.94;5025894;28;20030;-59
2022/02/03 10:12:34;;;;;;;2.67;1.30;;;;;;;7.13;54.95;99287.72;5025266;28;20541;-59
2022/02/03 10:15:01;;;;;;;1.10;0.80;;;;;;;7.31;55.26;99292.06;5024368;28;20414;-58
2022/02/03 10:17:40;;;;;;;4.13;1.30;;;;;;;7.29;56.73;99278.47;5030096;28;20059;-59
2022/02/03 10:20:13;;;;;;;2.10;0.83;;;;;;;7.31;55.58;99287.81;5033428;28;20140;-61
2022/02/03 10:22:48;;;;;;;1.03;0.80;;;;;;;7.45;56.64;99284.47;5031636;28;20099;-58
2022/02/03 10:25:33;;;;;;;3.22;1.20;;;;;;;7.41;55.29;99282.75;5029550;28;20060;-59
2022/02/03 10:28:03;;;;;;;6.20;1.33;;;;;;;7.63;55.21;99282.00;5033858;28;20398;-59
2022/02/03 10:30:44;;;;;;;2.23;0.90;;;;;;;7.75;55.65;99282.03;5032695;28;20171;-60
2022/02/03 10:33:10;;;;;;;1.00;0.83;;;;;;;7.59;53.69;99270.09;5029089;28;20144;-59
2022/02/03 10:35:56;;;;;;;2.00;0.97;;;;;;;7.81;52.96;99274.38;5028939;28;20033;-58
2022/02/03 11:07:55;;;;;;;2.88;1.35;;;;;;;8.36;48.21;99228.53;4977001;28;20610;-61
2022/02/03 11:12:51;;;;;;;0.90;0.90;;;;;;;8.38;47.51;99231.91;4977587;28;20322;-61
2022/02/03 11:15:17;;;;;;;3.03;0.80;;;;;;;8.47;48.72;99229.34;4976429;28;20438;-59
2022/02/03 11:17:46;;;;;;;1.80;1.17;;;;;;;8.61;47.41;99220.78;4977375;28;20038;-59
2022/02/03 11:20:12;;;;;;;9.47;4.17;;;;;;;8.69;48.46;99214.00;4979672;28;20050;-60
2022/02/03 11:22:55;;;;;;;18.87;7.90;;;;;;;8.95;48.80;99206.25;4980751;28;20042;-57
2022/02/03 11:33:09;;;;;;;181.98;170.90;;;;;;;9.55;44.26;99189.75;5017413;28;20057;-60
2022/02/03 11:54:54;;;;;;;1.73;1.23;;;;;;;9.85;46.89;99152.84;5030112;28;20297;-57
2022/02/03 12:00:30;;;;;;;1.98;1.25;;;;;;;10.39;44.83;99140.44;5031932;28;20417;-59
2022/02/03 12:10:23;;;;;;;1.33;0.90;;;;;;;10.78;42.28;99116.91;5030352;28;20048;-56
2022/02/03 12:11:41;;;;;;;1.30;0.80;;;;;;;10.91;40.72;99115.91;5030672;28;20552;-56
2022/02/03 12:22:12;;;;;;;3.22;1.00;;;;;;;10.94;43.30;99109.91;5026289;28;20044;-56
2022/02/03 12:25:34;;;;;;;1.02;0.93;;;;;;;10.83;43.00;99107.44;5026779;28;20450;-54
2022/02/03 12:31:07;;;;;;;1.15;1.00;;;;;;;10.77;41.65;99096.44;5027609;28;20032;-58
2022/02/03 12:38:42;;;;;;;0.80;0.80;;;;;;;10.94;42.40;99090.22;5026717;28;20036;-59
2022/02/03 12:41:12;;;;;;;1.50;1.05;;;;;;;10.79;43.21;99090.41;5027744;28;20036;-59
2022/02/03 12:43:41;;;;;;;2.53;1.52;;;;;;;10.93;43.26;99091.09;5024088;28;20036;-59
2022/02/03 12:46:07;;;;;;;2.05;1.83;;;;;;;10.79;44.90;99094.69;5029093;28;20064;-58
2022/02/03 12:48:35;;;;;;;2.15;1.67;;;;;;;10.85;45.12;99090.34;5028956;28;20222;-59
2022/02/03 12:51:02;;;;;;;1.60;1.50;;;;;;;10.58;45.80;99089.81;5026619;28;20483;-56
2022/02/03 12:53:34;;;;;;;2.67;1.27;;;;;;;10.64;45.76;99087.19;5026106;28;20032;-60
2022/02/03 12:56:03;;;;;;;3.67;1.92;;;;;;;10.26;45.84;99079.94;5027251;28;20438;-60
2022/02/03 12:58:35;;;;;;;4.93;1.48;;;;;;;9.96;46.79;99078.50;5025136;28;20443;-60
2022/02/03 13:01:08;;;;;;;3.78;1.92;;;;;;;10.03;45.99;99075.00;5025400;28;20040;-60
2022/02/03 13:03:38;;;;;;;2.03;1.27;;;;;;;9.73;46.68;99086.38;5026930;28;20025;-60
2022/02/03 13:06:09;;;;;;;3.45;0.93;;;;;;;9.92;46.69;99080.25;5027229;28;20403;-58
2022/02/03 13:08:36;;;;;;;2.58;1.15;;;;;;;10.17;46.62;99075.75;5024714;28;20116;-60
2022/02/03 13:12:06;;;;;;;2.45;1.17;;;;;;;10.23;45.07;99062.00;5026198;28;20033;-60
2022/02/03 13:16:37;;;;;;;2.15;1.38;;;;;;;10.36;45.32;99043.91;5032946;28;20088;-59
2022/02/03 13:20:13;;;;;;;1.75;1.25;;;;;;;10.38;44.67;99046.47;5029116;28;20149;-60
2022/02/03 13:22:28;;;;;;;121.18;109.20;;;;;;;10.14;45.27;99049.28;5017732;28;20492;-59
2022/02/03 13:25:20;;;;;;;2.47;1.25;;;;;;;10.11;46.28;99045.03;5032891;28;20072;-61
2022/02/03 13:33:05;;;;;;;2.42;1.10;;;;;;;10.39;45.06;99050.75;5031844;28;20121;-60
2022/02/03 13:38:19;;;;;;;3.35;1.33;;;;;;;10.37;45.57;99055.88;5030449;28;20044;-60
2022/02/03 13:40:44;;;;;;;2.70;1.80;;;;;;;10.41;45.46;99051.56;5030928;28;20040;-60
2022/02/03 13:43:13;;;;;;;4.82;2.20;;;;;;;10.43;46.06;99045.56;5033315;28;20033;-58
2022/02/03 13:45:40;;;;;;;4.75;2.05;;;;;;;10.26;45.00;99047.47;5032998;28;20116;-60
2022/02/03 13:48:20;;;;;;;4.70;1.98;;;;;;;10.27;46.02;99050.88;5028838;28;20107;-60
2022/02/03 13:50:58;;;;;;;4.63;4.18;;;;;;;10.06;47.18;99039.94;5033884;28;20044;-59
2022/02/03 13:53:39;;;;;;;3.60;1.70;;;;;;;10.07;47.15;99033.97;5035290;28;20819;-59
2022/02/03 14:13:56;;;;;;;4.00;1.80;;;;;;;9.85;48.36;99019.69;5033128;28;20134;-58
2022/02/03 14:21:38;;;;;;;3.17;2.30;;;;;;;9.96;48.01;99009.34;5032186;28;20130;-57
2022/02/03 14:29:23;;;;;;;3.10;1.70;;;;;;;9.55;48.85;99002.03;5033522;28;20122;-59
2022/02/03 14:31:58;;;;;;;2.42;1.65;;;;;;;9.49;49.44;99000.41;5037212;28;20108;-59
2022/02/03 14:34:30;;;;;;;1.98;1.67;;;;;;;9.38;50.41;99004.75;5028627;28;20036;-59
2022/02/03 14:37:03;;;;;;;476.90;436.27;;;;;;;9.33;51.60;99003.97;5028876;28;20527;-59
2022/02/03 14:42:06;;;;;;;472.63;429.45;;;;;;;9.23;51.49;98994.66;5031953;28;20055;-58
2022/02/03 14:44:32;;;;;;;361.77;334.13;;;;;;;9.26;51.46;98991.19;5028644;28;20038;-58
2022/02/03 14:46:58;;;;;;;40.67;38.58;;;;;;;9.17;51.78;98987.84;5029546;28;20128;-59
2022/02/03 14:49:23;;;;;;;4.13;2.45;;;;;;;9.10;51.19;98991.34;5031714;28;20033;-59
2022/02/03 14:52:10;;;;;;;471.87;424.67;;;;;;;9.21;51.15;98990.41;5036940;28;20491;-59
2022/02/03 15:00:06;;;;;;;309.90;287.42;;;;;;;9.07;53.20;98982.84;5030974;28;20063;-56
2022/02/03 15:02:31;;;;;;;322.03;303.17;;;;;;;9.00;54.22;98984.56;5029008;28;20448;-58
2022/02/03 15:05:04;;;;;;;334.60;314.83;;;;;;;8.82;54.76;98978.75;5030146;28;20039;-59
2022/02/03 15:07:30;;;;;;;167.73;159.68;;;;;;;8.79;54.74;98974.50;5033251;28;20096;-59
2022/02/03 15:10:13;;;;;;;366.75;344.92;;;;;;;8.64;56.48;98979.72;5035695;28;20107;-60
2022/02/03 15:12:44;;;;;;;374.05;351.52;;;;;;;8.54;57.04;98970.38;5014323;28;20424;-60
2022/02/03 15:15:11;;;;;;;344.50;323.90;;;;;;;8.39;57.92;98966.22;5029354;28;20439;-58
2022/02/03 15:17:36;;;;;;;346.77;326.43;;;;;;;8.32;57.96;98958.59;5033408;28;20037;-58
2022/02/03 15:20:06;;;;;;;304.13;286.55;;;;;;;8.36;59.25;98950.88;5031717;28;20754;-58
2022/02/03 15:22:31;;;;;;;296.87;279.83;;;;;;;8.24;58.86;98941.56;5026248;28;20072;-59
2022/02/03 15:24:58;;;;;;;206.88;196.15;;;;;;;8.15;60.26;98941.59;5027438;28;20080;-59
2022/02/03 15:27:23;;;;;;;288.17;272.00;;;;;;;8.03;60.71;98934.00;5035264;28;20029;-60
2022/02/03 15:29:51;;;;;;;129.40;122.88;;;;;;;8.00;61.20;98935.72;5031888;28;20040;-61
2022/02/03 15:32:17;;;;;;;60.47;57.17;;;;;;;7.94;62.20;98928.91;5028858;28;20017;-60
2022/02/03 15:34:43;;;;;;;48.27;45.90;;;;;;;7.93;62.84;98934.03;5030351;28;20033;-59
2022/02/03 15:37:14;;;;;;;165.20;157.20;;;;;;;7.83;63.81;98928.13;5032108;28;20455;-60
2022/02/03 15:39:52;;;;;;;108.10;103.40;;;;;;;7.70;66.57;98924.75;5029560;28;20052;-62
2022/02/03 15:42:24;;;;;;;121.13;114.80;;;;;;;7.60;67.69;98922.22;5026951;28;20500;-59
2022/02/03 15:44:53;;;;;;;153.30;145.57;;;;;;;7.44;69.14;98925.66;5024148;28;20021;-60
2022/02/03 15:47:34;;;;;;;102.83;97.80;;;;;;;7.27;71.98;98925.69;5030946;28;20052;-59
2022/02/03 16:19:12;;;;;;;4.03;3.00;;;;;;;6.15;84.63;98895.88;5025656;28;20103;-60
2022/02/03 16:21:44;;;;;;;4.43;3.10;;;;;;;6.11;84.90;98885.69;5028139;28;20115;-60
2022/02/03 16:24:40;;;;;;;6.23;3.67;;;;;;;6.21;84.95;98892.50;5028883;28;20036;-58
2022/02/03 16:51:41;;;;;;;6.50;3.40;;;;;;;5.48;93.47;98862.50;5033157;28;20043;-61
2022/02/03 16:54:11;;;;;;;5.93;3.57;;;;;;;5.41;93.38;98865.88;5030838;28;20025;-61
2022/02/03 16:56:36;;;;;;;4.33;3.20;;;;;;;5.36;94.16;98867.53;5028951;28;20481;-60
2022/02/03 16:59:03;;;;;;;9.03;4.30;;;;;;;5.29;94.69;98860.72;5028364;28;20021;-62
2022/02/03 17:01:28;;;;;;;22.43;21.13;;;;;;;5.14;95.22;98845.38;5029444;28;20065;-61
2022/02/03 17:03:54;;;;;;;53.83;50.73;;;;;;;5.09;96.03;98852.13;5031418;28;20538;-61
2022/02/03 17:06:21;;;;;;;40.13;37.70;;;;;;;5.05;96.65;98860.56;5011974;28;20250;-60
2022/02/03 17:08:46;;;;;;;49.00;46.17;;;;;;;5.00;96.47;98857.16;5010964;28;20036;-61
2022/02/03 17:11:11;;;;;;;48.30;45.63;;;;;;;4.92;96.80;98852.00;5026760;28;20254;-62
2022/02/03 17:13:37;;;;;;;115.00;107.83;;;;;;;4.88;98.31;98854.53;5027217;28;20044;-58
2022/02/03 17:16:02;;;;;;;179.97;167.43;;;;;;;4.86;98.63;98851.97;5024907;28;20510;-57
2022/02/03 17:18:28;;;;;;;109.37;102.00;;;;;;;4.80;99.66;98843.44;5029651;28;20080;-61
2022/02/03 17:20:54;;;;;;;179.93;166.43;;;;;;;4.76;100.00;98837.50;5030038;28;20033;-60
2022/02/03 17:23:23;;;;;;;127.50;118.93;;;;;;;4.67;100.00;98832.34;5022669;28;20024;-60
2022/02/03 17:25:56;;;;;;;171.73;159.27;;;;;;;4.54;100.00;98818.72;5030194;28;20103;-60
2022/02/03 17:28:29;;;;;;;173.97;160.87;;;;;;;4.51;100.00;98828.84;5032011;28;20403;-60
2022/02/03 17:31:01;;;;;;;157.70;145.77;;;;;;;4.45;100.00;98831.34;5031036;28;20037;-60
2022/02/03 18:07:17;;;;;;;14.17;7.27;;;;;;;3.87;100.00;98774.13;5034916;28;20072;-61
2022/02/03 18:09:12;;;;;;;16.57;8.00;;;;;;;3.84;100.00;98763.97;5018668;28;20052;-61
2022/02/03 18:30:45;;;;;;;17.48;9.80;;;;;;;3.74;100.00;98752.03;5031695;28;20345;-61
2022/02/03 18:33:44;;;;;;;21.43;10.70;;;;;;;3.72;100.00;98747.78;5031134;28;20033;-58
2022/02/03 18:52:06;;;;;;;19.70;10.23;;;;;;;3.56;100.00;98716.38;5033359;28;19931;-60
2022/02/03 18:54:50;;;;;;;25.43;12.77;;;;;;;3.53;100.00;98707.03;5031976;28;20033;-60
2022/02/03 18:57:30;;;;;;;14.63;9.50;;;;;;;3.54;100.00;98710.44;5029170;28;20117;-61
2022/02/03 19:00:30;;;;;;;17.63;10.37;;;;;;;3.54;100.00;98700.28;5030343;28;20040;-62
2022/02/03 19:29:09;;;;;;;18.00;9.70;;;;;;;3.39;100.00;98665.53;5031326;28;20071;-62
2022/02/03 20:04:06;;;;;;;18.20;9.47;;;;;;;3.20;100.00;98620.56;5026435;28;20060;-60
2022/02/03 20:11:35;;;;;;;16.47;8.87;;;;;;;3.21;100.00;98622.28;5028517;28;20296;-62
2022/02/03 20:14:00;;;;;;;16.90;8.93;;;;;;;3.20;100.00;98621.41;5028640;28;20025;-61
2022/02/03 20:16:26;;;;;;;19.43;8.70;;;;;;;3.16;100.00;98619.69;5029505;28;20036;-62
2022/02/03 20:18:51;;;;;;;15.03;8.57;;;;;;;3.13;100.00;98613.75;5027467;28;20088;-61
2022/02/03 20:21:17;;;;;;;15.37;7.60;;;;;;;3.03;100.00;98605.19;5026743;28;20041;-61
2022/02/03 20:23:44;;;;;;;11.13;7.13;;;;;;;3.04;100.00;98614.50;5029341;28;20346;-62
2022/02/03 20:26:14;;;;;;;11.97;6.80;;;;;;;2.98;100.00;98613.56;5026652;28;20033;-60
2022/02/03 20:28:40;;;;;;;10.97;7.00;;;;;;;2.96;100.00;98616.13;5027072;28;20029;-62
2022/02/03 20:31:05;;;;;;;10.00;7.47;;;;;;;2.90;100.00;98613.50;5025954;28;20059;-62
2022/02/03 20:33:31;;;;;;;14.83;7.77;;;;;;;2.84;100.00;98599.94;5028652;28;20032;-59
2022/02/03 20:35:57;;;;;;;19.30;9.47;;;;;;;2.80;100.00;98601.56;5029740;28;20052;-61
2022/02/03 20:38:22;;;;;;;15.27;8.67;;;;;;;2.78;100.00;98597.31;5027286;28;20457;-61
2022/02/03 20:40:49;;;;;;;20.13;9.37;;;;;;;2.67;100.00;98580.31;5027548;28;20058;-62
2022/02/03 20:43:15;;;;;;;17.57;9.83;;;;;;;2.68;100.00;98591.31;5016442;28;20025;-60
2022/02/03 20:45:42;;;;;;;18.93;8.80;;;;;;;2.61;100.00;98581.94;5032524;28;20344;-62
2022/02/03 20:48:08;;;;;;;20.67;11.47;;;;;;;2.53;100.00;98586.94;5026853;28;20122;-61
2022/02/03 20:50:40;;;;;;;21.00;10.80;;;;;;;2.46;100.00;98581.78;5027071;28;20190;-61
2022/02/03 20:53:06;;;;;;;21.83;10.70;;;;;;;2.40;100.00;98574.97;5033045;28;20029;-60
2022/02/03 20:55:31;;;;;;;22.37;11.73;;;;;;;2.36;100.00;98565.63;5030079;28;20392;-61
2022/02/03 20:57:57;;;;;;;25.30;12.60;;;;;;;2.29;100.00;98556.28;5026386;28;20121;-60
2022/02/03 21:00:30;;;;;;;19.37;11.37;;;;;;;2.28;100.00;98545.31;5028724;28;20032;-60
2022/02/03 21:03:02;;;;;;;24.23;10.30;;;;;;;2.27;100.00;98550.34;5031630;28;20033;-61
2022/02/03 21:05:27;;;;;;;20.40;10.27;;;;;;;2.16;100.00;98551.91;5029724;28;20625;-61
2022/02/03 21:07:53;;;;;;;18.63;10.07;;;;;;;2.08;100.00;98545.91;5016608;28;20147;-60
2022/02/03 21:10:24;;;;;;;20.47;10.53;;;;;;;2.06;100.00;98533.22;5027575;28;20498;-62
2022/02/03 21:12:52;;;;;;;20.27;11.27;;;;;;;2.00;100.00;98517.09;5030905;28;20103;-61
2022/02/03 21:15:23;;;;;;;24.73;13.10;;;;;;;1.97;100.00;98522.13;5029092;28;20037;-59
2022/02/03 21:17:49;;;;;;;19.57;9.93;;;;;;;1.86;100.00;98531.25;5027859;28;20253;-62
2022/02/03 21:20:17;;;;;;;20.07;10.73;;;;;;;1.82;100.00;98545.53;5031554;28;20102;-59
2022/02/03 21:22:43;;;;;;;19.93;9.90;;;;;;;1.75;100.00;98544.59;5034848;28;20041;-60
2022/02/03 21:25:22;;;;;;;16.67;8.77;;;;;;;1.74;100.00;98553.00;5028716;28;20377;-61
2022/02/03 21:27:50;;;;;;;13.60;7.67;;;;;;;1.70;100.00;98553.78;5026807;28;20553;-60
2022/02/03 21:30:17;;;;;;;16.67;9.13;;;;;;;1.65;100.00;98542.78;5029972;28;20087;-58
2022/02/03 21:32:43;;;;;;;14.40;8.73;;;;;;;1.57;100.00;98536.72;5012988;28;20045;-61
2022/02/03 21:35:10;;;;;;;12.43;7.40;;;;;;;1.51;100.00;98525.69;5027897;28;20345;-59
2022/02/03 21:37:37;;;;;;;13.60;8.43;;;;;;;1.50;100.00;98529.91;5029091;28;20368;-60
2022/02/03 21:40:03;;;;;;;18.27;8.97;;;;;;;1.48;100.00;98529.03;5029012;28;20030;-61
2022/02/03 21:42:28;;;;;;;13.43;7.63;;;;;;;1.47;100.00;98526.47;5032798;28;20030;-60
2022/02/03 21:44:54;;;;;;;12.50;8.70;;;;;;;1.50;100.00;98529.03;5029559;28;20025;-60
2022/02/03 21:47:19;;;;;;;14.03;8.47;;;;;;;1.60;100.00;98534.28;5027457;28;20099;-60
2022/02/03 21:49:45;;;;;;;18.20;8.83;;;;;;;1.57;100.00;98528.34;5029983;28;20049;-61
2022/02/03 21:52:18;;;;;;;185.87;111.40;;;;;;;1.57;100.00;98528.34;5029509;28;20169;-58
2022/02/03 21:54:44;;;;;;;14.70;9.17;;;;;;;1.54;100.00;98526.59;5028128;28;20133;-60
2022/02/03 21:57:10;;;;;;;14.90;7.03;;;;;;;1.56;100.00;98524.09;5025659;28;20033;-60
2022/02/03 21:59:36;;;;;;;7.87;6.30;;;;;;;1.52;100.00;98524.88;5028949;28;20028;-60
2022/02/03 22:02:01;;;;;;;16.17;6.83;;;;;;;1.50;100.00;98529.91;5026994;28;20094;-59
2022/02/03 22:04:27;;;;;;;11.83;6.60;;;;;;;1.53;100.00;98524.88;5025582;28;20137;-59
2022/02/03 22:06:52;;;;;;;10.93;7.13;;;;;;;1.51;100.00;98526.56;5028172;28;20466;-59
2022/02/03 22:09:17;;;;;;;12.23;6.60;;;;;;;1.47;100.00;98517.22;5029650;28;20041;-62
2022/02/03 22:11:43;;;;;;;12.70;6.10;;;;;;;1.49;100.00;98509.66;5032213;28;20036;-60
2022/02/03 22:14:09;;;;;;;13.23;6.80;;;;;;;1.47;100.00;98519.75;5012306;28;20041;-59
2022/02/03 22:16:36;;;;;;;11.37;6.50;;;;;;;1.45;100.00;98518.03;5033245;28;20399;-59
2022/02/03 22:19:01;;;;;;;9.80;5.60;;;;;;;1.42;100.00;98511.25;5031118;28;20084;-61
2022/02/03 22:24:09;;;;;;;11.40;5.77;;;;;;;1.38;100.00;98512.03;5029439;28;20107;-60
2022/02/03 22:40:55;;;;;;;13.93;6.33;;;;;;;1.10;100.00;98497.28;5031682;28;20577;-59
2022/02/03 22:43:16;;;;;;;14.00;6.77;;;;;;;1.11;100.00;98504.03;5026850;28;20452;-59
2022/02/03 22:46:06;;;;;;;34.57;31.03;;;;;;;1.13;100.00;98492.28;5030252;28;20029;-59